Cape Girardeau Regional Airport
KCGI : now visible

Airfield :











YOU CAN JOIN US ON...

 
LOGIN :

Register | Disclaimer

   EN    FR    IT 

 









Legend :    VFR   Marginal VFR   IFR   Intensive IFR   Very Intensive IFR
Visi :
Ceiling :
>= 8 km
>= 3000ft
5 to 8 km
1000 to 3000 ft
1500m to 5 km
500 to 1000 ft
800 to 1500m
200 to 500 ft
< 800m
< 200 ft
Symbols :   Thunderstorms  Fog  Heavy snow  Heavy precipitations  Wind > 20 kt






- Airport Elevation : 342 ft
- IATA code : CGI


KCGI - Cape Girardeau Regional

CURRENT METAR :
  • 082053Z 17006KT 5SM BR OVC006 08/07 A2998 RMK AO2 SLP154 T00830067 56024

EXPIRED METARs :
  • 082022Z 18006KT 4SM BR OVC005 08/07 A2999 RMK AO2 T00830067
  • 081953Z 17006KT 4SM BR OVC004 08/06 A3000 RMK AO2 SLP161 T00780061
  • 081932Z 20005KT 4SM BR OVC004 07/06 A3002 RMK AO2 T00720061
  • 081853Z 18008KT 5SM BR OVC005 07/06 A3002 RMK AO2 SLP168 T00720056

TAF KCGI
Valid from the 08 at 19:00 until the 09 at 18:00 UTC


081901Z 0819/0918 19009KT 5SM BR OVC005
FM082100 19010KT P6SM OVC008
FM090200 18010KT P6SM OVC012
FM090600 18012KT 6SM -SHRA BR OVC015
FM090900 19013G20KT 4SM -SHRA BR OVC010
FM091500 20013G20KT 6SM -SHRA BR OVC008



MET'MAP, your aeronautical weather chart ! - Copyright ORBIFLY December 2007 - Disclaimer

ORBIFLY MET'MAP TEAM :

Programming & Development : Alexandra Zaïnal
Concept & original design : Baudouin d'Aumeries
Assistance for programming : Marc-Olivier Méhu
Technical & hardware support : Manuel Goepfert

Contact : metmap@orbifly.com




SOURCES & CREDITS :

   NOAA       Earth
Advisory